Time;durP1;ratioP1;P1;durP2;ratioP2;P2;SDS_P1;SDS_P2;PMS_P1;PMS_P2;Temp;Humidity;BMP_temperature;BMP_pressure;BME280_temperature;BME280_humidity;BME280_pressure;Samples;Min_cycle;Max_cycle;Signal;HPM_P1;HPM_P2
2021/04/09 00:00:30;;;;;;;8.27;7.57;;;;;;;-2.11;81.10;98470.81;5043863;28;20238;-74
2021/04/09 00:02:57;;;;;;;9.07;6.73;;;;;;;-2.04;80.80;98462.69;5041688;28;20210;-74
2021/04/09 00:05:25;;;;;;;8.80;7.23;;;;;;;-2.08;80.89;98465.47;5040907;28;20203;-74
2021/04/09 00:07:54;;;;;;;8.83;7.40;;;;;;;-2.05;80.58;98462.72;5045123;28;20247;-74
2021/04/09 00:10:22;;;;;;;7.67;6.87;;;;;;;-2.09;81.19;98464.63;5036622;28;20692;-73
2021/04/09 00:12:49;;;;;;;7.70;7.00;;;;;;;-2.08;80.33;98458.53;5042453;28;20650;-74
2021/04/09 00:15:18;;;;;;;7.23;6.60;;;;;;;-2.01;79.90;98455.66;5043753;28;20199;-74
2021/04/09 00:17:45;;;;;;;8.40;7.53;;;;;;;-1.98;79.60;98455.50;5040078;28;20204;-74
2021/04/09 00:20:15;;;;;;;8.07;7.13;;;;;;;-2.04;79.51;98451.44;5040201;28;20495;-74
2021/04/09 00:22:42;;;;;;;7.33;6.73;;;;;;;-2.10;79.67;98444.75;5042254;28;20210;-75
2021/04/09 00:25:11;;;;;;;9.00;6.73;;;;;;;-2.11;80.12;98444.84;5043357;28;20211;-74
2021/04/09 00:27:38;;;;;;;7.80;7.10;;;;;;;-1.95;78.84;98450.16;5042956;28;20212;-74
2021/04/09 00:30:07;;;;;;;8.07;6.97;;;;;;;-2.13;80.01;98446.69;5044335;28;20237;-74
2021/04/09 00:32:35;;;;;;;9.10;7.47;;;;;;;-2.04;78.62;98447.09;5041054;28;20375;-72
2021/04/09 00:35:03;;;;;;;8.20;7.40;;;;;;;-1.96;79.01;98444.09;5042997;28;20203;-74
2021/04/09 00:37:31;;;;;;;7.53;6.87;;;;;;;-2.05;79.50;98447.16;5044550;28;20218;-72
2021/04/09 00:39:58;;;;;;;8.07;6.97;;;;;;;-2.01;78.58;98437.47;5045347;28;20247;-73
2021/04/09 00:42:25;;;;;;;6.70;6.10;;;;;;;-1.97;79.13;98437.22;5042954;28;20242;-72
2021/04/09 00:44:56;;;;;;;8.20;7.23;;;;;;;-1.99;78.83;98435.63;5043830;28;20687;-73
2021/04/09 00:47:24;;;;;;;7.93;7.23;;;;;;;-1.97;79.32;98431.19;5044197;28;20668;-74
2021/04/09 00:49:52;;;;;;;9.03;8.13;;;;;;;-1.94;79.40;98431.06;5043607;28;20346;-74
2021/04/09 00:52:21;;;;;;;8.50;7.80;;;;;;;-2.05;79.87;98431.56;5044525;28;20751;-73
2021/04/09 00:54:48;;;;;;;10.13;6.77;;;;;;;-2.00;78.96;98421.78;5043394;28;20200;-74
2021/04/09 00:57:16;;;;;;;8.10;7.40;;;;;;;-2.02;78.89;98421.03;5044947;28;20199;-74
2021/04/09 00:59:44;;;;;;;7.43;6.83;;;;;;;-2.09;80.06;98423.06;5040260;28;20225;-73
2021/04/09 01:02:11;;;;;;;8.23;6.37;;;;;;;-2.10;79.48;98417.97;5042826;28;20224;-74
2021/04/09 01:04:38;;;;;;;7.33;6.57;;;;;;;-2.09;80.80;98412.69;5044610;28;20579;-74
2021/04/09 01:07:07;;;;;;;8.60;6.77;;;;;;;-2.07;80.64;98410.88;5040868;28;20211;-74
2021/04/09 01:09:35;;;;;;;8.50;7.37;;;;;;;-2.20;80.81;98412.34;5037556;28;20237;-73
2021/04/09 01:12:03;;;;;;;8.77;7.97;;;;;;;-2.20;80.41;98413.22;5040092;28;20207;-73
2021/04/09 01:14:30;;;;;;;8.27;7.47;;;;;;;-2.09;80.17;98406.66;5042637;28;20226;-73
2021/04/09 01:17:03;;;;;;;7.97;7.17;;;;;;;-2.33;80.93;98397.38;5044159;28;20650;-74
2021/04/09 01:20:03;;;;;;;7.67;7.07;;;;;;;-2.20;80.88;98405.44;5044517;28;20722;-74
2021/04/09 01:22:42;;;;;;;7.43;6.80;;;;;;;-2.31;81.64;98394.69;5011587;28;20318;-74
2021/04/09 01:25:37;;;;;;;7.77;7.17;;;;;;;-2.45;82.57;98397.97;5041419;28;20199;-73
2021/04/09 01:28:12;;;;;;;7.30;6.60;;;;;;;-2.45;82.45;98403.16;5040879;28;20196;-73
2021/04/09 01:31:18;;;;;;;7.27;6.57;;;;;;;-2.58;83.04;98387.31;5036663;28;20757;-74
2021/04/09 01:33:51;;;;;;;7.17;6.50;;;;;;;-2.57;83.57;98383.81;5020073;28;20291;-73
2021/04/09 01:36:21;;;;;;;8.17;7.33;;;;;;;-2.54;83.16;98383.66;5042118;28;20199;-73
2021/04/09 01:38:53;;;;;;;8.10;7.27;;;;;;;-2.64;84.09;98385.00;5039851;28;20238;-72
2021/04/09 01:41:20;;;;;;;8.20;7.37;;;;;;;-2.72;83.61;98382.75;5042623;28;20518;-73
2021/04/09 01:43:48;;;;;;;8.80;7.13;;;;;;;-2.76;84.46;98374.25;5043538;28;20287;-73
2021/04/09 01:46:16;;;;;;;9.07;7.50;;;;;;;-2.77;84.93;98375.19;5037578;28;20208;-73
2021/04/09 01:48:44;;;;;;;8.00;7.20;;;;;;;-2.82;84.69;98379.72;5041857;28;20254;-73
2021/04/09 01:51:14;;;;;;;8.17;7.40;;;;;;;-2.85;85.43;98373.84;5041139;28;20199;-73
2021/04/09 01:53:42;;;;;;;8.23;7.43;;;;;;;-2.83;85.41;98378.06;5042244;28;20208;-73
2021/04/09 01:56:10;;;;;;;8.10;7.30;;;;;;;-2.76;85.48;98361.28;5043136;28;20714;-73
2021/04/09 01:58:38;;;;;;;8.10;7.30;;;;;;;-2.84;84.76;98362.53;5039408;28;20220;-73
2021/04/09 02:01:08;;;;;;;7.57;6.87;;;;;;;-2.77;84.88;98370.00;5043047;28;20227;-73
2021/04/09 02:03:35;;;;;;;9.10;7.57;;;;;;;-2.77;85.18;98369.16;5039122;28;20207;-73
2021/04/09 02:06:03;;;;;;;8.47;7.13;;;;;;;-2.81;85.35;98360.66;5041179;28;20207;-74
2021/04/09 02:08:32;;;;;;;7.83;7.13;;;;;;;-2.81;85.85;98362.44;5036112;28;20212;-73
2021/04/09 02:10:59;;;;;;;7.80;7.17;;;;;;;-2.88;85.71;98367.06;5043589;28;20200;-74
2021/04/09 02:13:28;;;;;;;8.17;7.33;;;;;;;-2.77;86.29;98367.38;5038126;28;20208;-73
2021/04/09 02:15:57;;;;;;;8.23;7.23;;;;;;;-2.83;85.66;98359.91;5043258;28;20269;-73
2021/04/09 02:18:24;;;;;;;7.63;7.13;;;;;;;-2.80;85.80;98351.16;5041863;28;20607;-73
2021/04/09 02:20:51;;;;;;;7.90;7.20;;;;;;;-2.79;85.33;98345.03;5040921;28;20207;-73
2021/04/09 02:23:19;;;;;;;8.93;8.03;;;;;;;-2.82;86.52;98345.19;5041777;28;20196;-72
2021/04/09 02:25:47;;;;;;;9.13;7.37;;;;;;;-2.81;86.20;98347.69;5041088;28;20495;-74
2021/04/09 02:28:15;;;;;;;9.53;8.60;;;;;;;-2.67;85.03;98348.78;5042204;28;20202;-72
2021/04/09 02:30:42;;;;;;;8.00;7.40;;;;;;;-2.77;85.63;98344.03;5040846;28;20238;-73
2021/04/09 02:33:09;;;;;;;8.00;7.40;;;;;;;-2.80;86.31;98339.00;5041833;28;20215;-71
2021/04/09 02:35:36;;;;;;;8.47;7.67;;;;;;;-2.81;86.22;98326.94;5042443;28;20225;-74
2021/04/09 02:38:03;;;;;;;8.80;8.00;;;;;;;-2.90;86.82;98329.97;5040569;28;20206;-72
2021/04/09 02:40:34;;;;;;;7.90;7.20;;;;;;;-2.93;86.86;98333.53;5033807;28;20243;-74
2021/04/09 02:43:02;;;;;;;8.80;7.67;;;;;;;-2.99;87.16;98339.00;5043237;28;20207;-72
2021/04/09 02:45:29;;;;;;;9.93;8.47;;;;;;;-3.07;87.70;98335.94;5039524;28;20199;-72
2021/04/09 02:47:58;;;;;;;7.57;6.87;;;;;;;-3.03;88.21;98342.66;5042919;28;20215;-74
2021/04/09 02:50:30;;;;;;;9.33;8.47;;;;;;;-3.01;88.20;98330.47;5042435;28;20651;-73
2021/04/09 02:53:01;;;;;;;8.70;7.80;;;;;;;-2.95;87.88;98330.16;5043104;28;20567;-73
2021/04/09 02:55:31;;;;;;;9.40;8.07;;;;;;;-2.95;87.51;98322.38;5040929;28;20200;-74
2021/04/09 02:58:02;;;;;;;9.77;8.27;;;;;;;-2.86;87.94;98318.53;5042914;28;20702;-74
2021/04/09 03:00:29;;;;;;;8.17;7.37;;;;;;;-3.04;87.77;98335.78;5040182;28;20219;-73
2021/04/09 03:02:57;;;;;;;9.20;8.37;;;;;;;-2.83;87.38;98315.81;5041327;28;20238;-75
2021/04/09 03:05:24;;;;;;;12.27;7.50;;;;;;;-2.67;87.06;98315.91;5041337;28;20226;-73
2021/04/09 03:07:51;;;;;;;9.20;8.30;;;;;;;-2.83;86.91;98321.00;5041229;28;20391;-73
2021/04/09 03:10:19;;;;;;;8.47;7.67;;;;;;;-3.07;88.52;98326.38;5039499;28;20324;-72
2021/04/09 03:12:46;;;;;;;8.53;7.73;;;;;;;-3.12;88.55;98327.53;5042291;28;20211;-73
2021/04/09 03:15:17;;;;;;;9.40;8.50;;;;;;;-3.09;88.72;98322.19;5042429;28;20473;-73
2021/04/09 03:17:50;;;;;;;8.73;7.97;;;;;;;-3.12;89.44;98310.19;5040346;28;20218;-74
2021/04/09 03:20:18;;;;;;;9.10;8.23;;;;;;;-3.04;89.19;98304.66;5042946;28;20357;-72
2021/04/09 03:22:45;;;;;;;9.27;8.37;;;;;;;-3.16;89.29;98313.03;5042380;28;20228;-74
2021/04/09 03:25:12;;;;;;;8.13;7.40;;;;;;;-3.06;89.58;98303.91;5037252;28;20204;-72
2021/04/09 03:27:40;;;;;;;9.07;8.23;;;;;;;-3.11;89.60;98305.88;5039592;28;20217;-73
2021/04/09 03:30:08;;;;;;;10.57;8.23;;;;;;;-3.23;90.20;98305.50;5042096;28;20231;-74
2021/04/09 03:32:36;;;;;;;8.77;8.07;;;;;;;-3.18;90.66;98299.28;5040311;28;20576;-74
2021/04/09 03:35:04;;;;;;;9.57;8.20;;;;;;;-3.13;90.64;98299.91;5039126;28;20207;-75
2021/04/09 03:37:31;;;;;;;9.23;7.70;;;;;;;-3.22;90.85;98301.16;5038598;28;20675;-73
2021/04/09 03:39:58;;;;;;;9.17;8.37;;;;;;;-3.14;91.56;98290.47;5041737;28;20231;-74
2021/04/09 03:42:25;;;;;;;9.07;8.10;;;;;;;-3.09;91.59;98291.91;5039341;28;20283;-73
2021/04/09 03:44:52;;;;;;;10.50;8.70;;;;;;;-3.03;91.15;98288.19;5041757;28;20199;-74
2021/04/09 03:47:19;;;;;;;10.30;9.40;;;;;;;-3.08;91.29;98285.81;5042621;28;20207;-74
2021/04/09 03:49:47;;;;;;;9.80;8.90;;;;;;;-3.15;91.62;98286.19;5038037;28;20618;-75
2021/04/09 03:52:14;;;;;;;8.87;8.07;;;;;;;-3.03;91.80;98289.94;5042640;28;20200;-74
2021/04/09 03:54:41;;;;;;;9.73;8.43;;;;;;;-2.92;90.64;98291.13;5041301;28;20265;-73
2021/04/09 03:57:08;;;;;;;10.13;8.73;;;;;;;-2.96;91.16;98287.00;5042042;28;20215;-74
2021/04/09 03:59:35;;;;;;;9.10;8.40;;;;;;;-2.91;91.42;98289.38;5040274;28;20224;-74
2021/04/09 04:02:02;;;;;;;9.53;8.73;;;;;;;-3.02;91.22;98291.66;5038088;28;20231;-73
2021/04/09 04:04:30;;;;;;;9.63;8.73;;;;;;;-3.14;92.14;98287.88;5040244;28;20252;-73
2021/04/09 04:06:58;;;;;;;9.43;8.50;;;;;;;-3.17;92.78;98288.00;5040606;28;20200;-73
2021/04/09 04:09:25;;;;;;;10.67;8.77;;;;;;;-3.05;92.39;98284.84;5038884;28;20231;-74
2021/04/09 04:11:52;;;;;;;9.87;8.97;;;;;;;-3.05;92.01;98284.84;5036171;28;20201;-74
2021/04/09 04:14:20;;;;;;;11.13;9.80;;;;;;;-3.06;92.10;98289.16;5037843;28;20265;-74
2021/04/09 04:16:47;;;;;;;9.17;8.37;;;;;;;-3.11;92.72;98282.53;5041649;28;20591;-71
2021/04/09 04:19:17;;;;;;;10.57;9.67;;;;;;;-3.05;92.36;98282.25;5036452;28;20311;-71
2021/04/09 04:21:44;;;;;;;10.63;9.57;;;;;;;-2.93;92.26;98284.25;5038404;28;20220;-68
2021/04/09 04:24:12;;;;;;;10.00;9.10;;;;;;;-2.99;92.20;98278.53;5041539;28;20208;-72
2021/04/09 04:26:39;;;;;;;10.70;9.60;;;;;;;-2.91;91.88;98282.44;5041836;28;20443;-71
2021/04/09 04:29:06;;;;;;;10.07;9.27;;;;;;;-3.00;92.43;98277.69;5038413;28;20227;-72
2021/04/09 04:31:33;;;;;;;10.03;9.13;;;;;;;-2.93;92.13;98286.03;5040311;28;20214;-70
2021/04/09 04:34:01;;;;;;;10.70;9.80;;;;;;;-2.82;91.66;98277.75;5039081;28;20509;-72
2021/04/09 04:36:28;;;;;;;10.13;9.10;;;;;;;-2.91;91.28;98289.38;5043364;28;20673;-72
2021/04/09 04:38:55;;;;;;;9.93;9.03;;;;;;;-2.86;92.19;98283.97;5044875;28;20235;-71
2021/04/09 04:41:24;;;;;;;10.47;9.47;;;;;;;-2.94;92.12;98279.97;5045835;28;20572;-71
2021/04/09 04:43:51;;;;;;;11.13;9.90;;;;;;;-2.98;91.84;98278.44;5045340;28;20212;-72
2021/04/09 04:46:18;;;;;;;9.80;8.80;;;;;;;-2.80;91.75;98275.91;5041602;28;20204;-73
2021/04/09 04:48:45;;;;;;;9.73;8.80;;;;;;;-2.63;91.24;98278.53;5043055;28;20649;-71
2021/04/09 04:51:12;;;;;;;11.00;10.00;;;;;;;-2.72;90.81;98272.94;5043745;28;20199;-72
2021/04/09 04:53:39;;;;;;;10.57;9.57;;;;;;;-2.76;91.98;98277.44;5045486;28;20200;-72
2021/04/09 04:56:07;;;;;;;11.53;10.33;;;;;;;-2.66;91.76;98275.22;5044306;28;20210;-72
2021/04/09 04:58:34;;;;;;;10.00;9.00;;;;;;;-2.63;91.06;98275.13;5044034;28;20204;-72
2021/04/09 05:01:01;;;;;;;10.70;9.80;;;;;;;-2.55;90.84;98272.13;5045081;28;20200;-72
2021/04/09 05:03:29;;;;;;;11.13;10.13;;;;;;;-2.56;90.92;98280.81;5042690;28;20203;-72
2021/04/09 05:05:56;;;;;;;11.33;10.13;;;;;;;-2.62;91.06;98277.63;5043913;28;20215;-72
2021/04/09 05:08:26;;;;;;;12.20;11.00;;;;;;;-2.52;91.34;98274.56;5041251;28;20207;-71
2021/04/09 05:10:53;;;;;;;11.13;10.20;;;;;;;-2.41;90.05;98276.66;5045375;28;20211;-72
2021/04/09 05:13:20;;;;;;;10.13;9.20;;;;;;;-2.37;89.99;98273.84;5042528;28;20200;-73
2021/04/09 05:15:48;;;;;;;11.47;10.47;;;;;;;-2.21;89.91;98273.06;5043492;28;20200;-71
2021/04/09 05:18:16;;;;;;;11.37;10.37;;;;;;;-2.04;88.52;98269.63;5042642;28;20664;-71
2021/04/09 05:20:43;;;;;;;11.50;10.37;;;;;;;-1.94;87.90;98267.41;5039088;28;20238;-71
2021/04/09 05:23:11;;;;;;;11.63;9.57;;;;;;;-1.82;87.65;98263.34;5041543;28;20224;-72
2021/04/09 05:25:38;;;;;;;11.13;10.00;;;;;;;-1.79;87.74;98270.97;5044013;28;20442;-71
2021/04/09 05:28:05;;;;;;;11.30;10.20;;;;;;;-1.66;86.35;98277.19;5043689;28;20598;-72
2021/04/09 05:30:32;;;;;;;10.27;9.47;;;;;;;-1.48;85.13;98277.16;5041254;28;20493;-71
2021/04/09 05:33:00;;;;;;;10.37;9.47;;;;;;;-1.43;85.63;98274.31;5044256;28;20239;-72
2021/04/09 05:35:27;;;;;;;10.40;9.60;;;;;;;-1.51;85.30;98269.53;5041286;28;20203;-71
2021/04/09 05:37:54;;;;;;;11.47;10.37;;;;;;;-1.49;86.46;98271.13;5036582;28;20681;-72
2021/04/09 05:40:22;;;;;;;10.00;9.20;;;;;;;-1.25;84.85;98267.28;5038585;28;20220;-72
2021/04/09 05:42:56;;;;;;;11.73;10.57;;;;;;;-1.04;83.49;98267.88;5042560;28;20277;-72
2021/04/09 05:45:24;;;;;;;10.37;9.50;;;;;;;-0.87;83.33;98269.53;5043159;28;20201;-72
2021/04/09 05:48:01;;;;;;;10.50;9.53;;;;;;;-0.71;82.33;98277.34;5043288;28;20250;-71
2021/04/09 05:50:29;;;;;;;11.20;9.80;;;;;;;-0.80;81.88;98270.06;5040635;28;20335;-70
2021/04/09 05:52:56;;;;;;;10.53;9.50;;;;;;;-0.80;82.33;98272.66;5043313;28;20245;-71
2021/04/09 05:55:24;;;;;;;11.03;9.97;;;;;;;-0.68;81.86;98277.16;5041850;28;20299;-70
2021/04/09 05:57:51;;;;;;;10.97;10.03;;;;;;;-0.59;81.22;98268.00;5040778;28;20230;-70
2021/04/09 06:00:19;;;;;;;13.03;10.17;;;;;;;-0.48;80.97;98262.19;5042883;28;20617;-70
2021/04/09 06:02:46;;;;;;;10.63;9.33;;;;;;;-0.36;79.76;98256.28;5040317;28;20242;-70
2021/04/09 06:05:14;;;;;;;11.33;9.23;;;;;;;-0.46;80.18;98258.56;5039484;28;20204;-71
2021/04/09 06:07:41;;;;;;;10.73;9.70;;;;;;;-0.30;80.49;98253.31;5042849;28;20215;-70
2021/04/09 06:10:09;;;;;;;11.17;10.17;;;;;;;-0.20;79.92;98258.84;5042571;28;20698;-70
2021/04/09 06:12:38;;;;;;;10.37;9.37;;;;;;;-0.28;79.88;98261.06;5042416;28;20249;-71
2021/04/09 06:15:07;;;;;;;9.10;8.40;;;;;;;-0.13;79.95;98261.06;5042238;28;20223;-71
2021/04/09 06:17:34;;;;;;;11.03;10.03;;;;;;;0.02;78.95;98259.34;5039804;28;20208;-71
2021/04/09 06:20:03;;;;;;;10.43;9.40;;;;;;;0.11;78.46;98248.38;5042746;28;20255;-70
2021/04/09 06:22:30;;;;;;;9.90;9.00;;;;;;;0.32;77.63;98253.22;5041892;28;20224;-71
2021/04/09 06:24:58;;;;;;;10.93;9.87;;;;;;;0.30;77.62;98244.66;5041159;28;20215;-70
2021/04/09 06:27:25;;;;;;;10.03;9.27;;;;;;;0.36;77.36;98234.69;5042057;28;20208;-70
2021/04/09 06:29:52;;;;;;;9.77;8.97;;;;;;;0.47;80.36;98234.03;5042228;28;20227;-70
2021/04/09 06:32:19;;;;;;;10.37;9.37;;;;;;;0.62;78.50;98237.47;5041207;28;20210;-69
2021/04/09 06:34:46;;;;;;;11.00;9.27;;;;;;;0.76;80.16;98244.44;5042683;28;20279;-70
2021/04/09 06:37:13;;;;;;;10.37;9.47;;;;;;;1.01;76.60;98245.50;5041553;28;20200;-70
2021/04/09 06:39:40;;;;;;;10.07;9.10;;;;;;;1.22;76.96;98238.09;5041942;28;20266;-71
2021/04/09 06:42:09;;;;;;;12.07;9.43;;;;;;;1.30;76.71;98240.19;5042211;28;20238;-68
2021/04/09 06:44:39;;;;;;;10.60;9.60;;;;;;;1.23;73.43;98241.50;5040467;28;20199;-70
2021/04/09 06:47:07;;;;;;;10.53;9.43;;;;;;;1.34;74.33;98235.59;5041612;28;20306;-70
2021/04/09 06:49:34;;;;;;;10.47;9.47;;;;;;;1.40;72.52;98243.88;5042253;28;20368;-69
2021/04/09 06:52:02;;;;;;;9.80;8.83;;;;;;;1.50;71.21;98238.06;5041809;28;20217;-69
2021/04/09 06:54:30;;;;;;;10.03;9.10;;;;;;;1.50;71.81;98233.66;5041236;28;20207;-71
2021/04/09 06:56:57;;;;;;;10.53;9.10;;;;;;;1.70;71.31;98226.28;5042112;28;20206;-70
2021/04/09 06:59:30;;;;;;;10.00;9.00;;;;;;;1.73;70.12;98223.47;5041030;28;20642;-70
2021/04/09 07:01:58;;;;;;;9.07;8.33;;;;;;;1.99;71.31;98223.50;5042093;28;20691;-70
2021/04/09 07:04:25;;;;;;;10.30;9.30;;;;;;;2.17;69.21;98231.88;5038772;28;20213;-70
2021/04/09 07:06:52;;;;;;;9.77;8.87;;;;;;;2.22;69.09;98216.69;5036628;28;20220;-71
2021/04/09 07:09:20;;;;;;;9.20;8.27;;;;;;;2.36;68.61;98217.50;5040838;28;20223;-72
2021/04/09 07:11:51;;;;;;;10.70;9.47;;;;;;;2.55;67.65;98211.84;5037717;28;20212;-70
2021/04/09 07:14:19;;;;;;;8.50;7.70;;;;;;;2.72;67.06;98211.50;5038147;28;20215;-70
2021/04/09 07:17:00;;;;;;;9.30;8.47;;;;;;;2.59;65.72;98201.06;5038757;28;20208;-68
2021/04/09 07:19:35;;;;;;;8.20;7.50;;;;;;;2.86;65.53;98199.19;5039007;28;20312;-70
2021/04/09 07:22:05;;;;;;;9.83;8.83;;;;;;;3.13;64.72;98192.91;5040285;28;20301;-70
2021/04/09 07:24:32;;;;;;;8.30;7.50;;;;;;;3.30;63.73;98196.91;5039774;28;20207;-70
2021/04/09 07:27:00;;;;;;;8.30;7.60;;;;;;;3.21;63.91;98192.34;5036695;28;20204;-70
2021/04/09 07:29:44;;;;;;;8.20;7.50;;;;;;;3.56;64.24;98192.38;5038323;28;20898;-70
2021/04/09 07:32:29;;;;;;;7.57;6.90;;;;;;;3.64;61.68;98183.94;5034377;28;20383;-70
2021/04/09 07:34:59;;;;;;;7.67;6.97;;;;;;;3.78;62.37;98174.19;5035919;28;20203;-70
2021/04/09 07:37:27;;;;;;;8.07;7.27;;;;;;;3.93;59.60;98178.25;5036344;28;20670;-70
2021/04/09 07:39:56;;;;;;;7.53;6.93;;;;;;;3.95;60.01;98170.28;5040097;28;20230;-71
2021/04/09 07:42:32;;;;;;;7.90;7.30;;;;;;;4.07;61.25;98179.00;5040214;28;20559;-70
2021/04/09 07:45:01;;;;;;;8.60;7.80;;;;;;;4.25;60.35;98179.38;5037242;28;20203;-71
2021/04/09 07:47:29;;;;;;;7.77;7.07;;;;;;;4.19;60.28;98178.88;5039401;28;20370;-70
2021/04/09 07:50:09;;;;;;;8.70;8.00;;;;;;;4.38;58.95;98171.38;5039930;28;20311;-70
2021/04/09 07:52:42;;;;;;;8.67;7.80;;;;;;;4.64;58.09;98177.19;5037671;28;20209;-72
2021/04/09 07:55:17;;;;;;;7.80;7.10;;;;;;;4.85;56.83;98179.03;5039639;28;20208;-72
2021/04/09 07:57:44;;;;;;;7.43;6.73;;;;;;;4.66;58.08;98177.91;5035642;28;20195;-69
2021/04/09 08:00:23;;;;;;;8.13;7.40;;;;;;;4.98;56.63;98178.91;5034038;28;20592;-71
2021/04/09 08:02:52;;;;;;;8.47;6.60;;;;;;;5.02;56.41;98182.94;5038461;28;20227;-72
2021/04/09 08:05:22;;;;;;;7.83;7.23;;;;;;;5.21;56.30;98177.88;5036515;28;20211;-71
2021/04/09 08:07:50;;;;;;;8.13;7.43;;;;;;;5.33;55.12;98175.19;5037702;28;20210;-71
2021/04/09 08:10:20;;;;;;;7.63;6.57;;;;;;;5.32;55.45;98177.00;5037983;28;20672;-71
2021/04/09 08:12:51;;;;;;;7.20;6.60;;;;;;;5.31;54.82;98170.06;5043388;28;20210;-70
2021/04/09 08:15:21;;;;;;;7.33;6.83;;;;;;;5.58;54.61;98176.63;5042517;28;20208;-71
2021/04/09 08:18:00;;;;;;;7.50;6.73;;;;;;;5.91;54.09;98164.22;5043796;28;20199;-71
2021/04/09 08:20:30;;;;;;;6.20;5.70;;;;;;;6.13;53.07;98169.50;5041358;28;20711;-72
2021/04/09 08:23:03;;;;;;;6.80;6.10;;;;;;;6.16;54.13;98158.69;5039470;28;20688;-71
2021/04/09 08:25:30;;;;;;;7.07;6.30;;;;;;;6.48;51.92;98161.19;5042094;28;20704;-72
2021/04/09 08:27:58;;;;;;;6.60;6.00;;;;;;;6.49;52.17;98160.22;5041723;28;20203;-73
2021/04/09 08:30:28;;;;;;;6.47;5.60;;;;;;;6.75;51.90;98156.28;5043446;28;20253;-72
2021/04/09 08:32:59;;;;;;;9.60;5.87;;;;;;;6.94;50.04;98161.56;5041038;28;20207;-72
2021/04/09 08:35:26;;;;;;;6.70;6.07;;;;;;;6.97;49.91;98146.44;5043731;28;20268;-72
2021/04/09 08:37:55;;;;;;;5.67;5.17;;;;;;;7.12;48.59;98153.00;5042743;28;20214;-70
2021/04/09 08:40:22;;;;;;;5.80;5.50;;;;;;;7.27;48.53;98147.28;5042715;28;20254;-72
2021/04/09 08:42:49;;;;;;;5.70;5.30;;;;;;;7.43;48.78;98147.56;5042564;28;20219;-72
2021/04/09 08:45:17;;;;;;;6.00;5.40;;;;;;;7.73;47.92;98135.16;5041282;28;20211;-72
2021/04/09 08:47:45;;;;;;;6.13;5.70;;;;;;;8.02;47.78;98133.44;5043302;28;20238;-73
2021/04/09 08:50:16;;;;;;;5.90;5.40;;;;;;;8.03;47.08;98132.44;5041327;28;20329;-72
2021/04/09 08:52:45;;;;;;;6.47;5.87;;;;;;;8.04;47.24;98126.19;5043734;28;20218;-72
2021/04/09 08:55:14;;;;;;;5.77;5.27;;;;;;;8.05;45.79;98128.69;5043768;28;21053;-71
2021/04/09 08:57:42;;;;;;;6.00;5.50;;;;;;;7.99;45.83;98131.09;5043519;28;20208;-73
2021/04/09 09:00:12;;;;;;;6.23;5.63;;;;;;;7.98;46.79;98127.59;5040116;28;20233;-71
2021/04/09 09:02:41;;;;;;;6.30;5.70;;;;;;;8.28;46.45;98125.69;5041164;28;20215;-70
2021/04/09 09:05:12;;;;;;;6.37;5.60;;;;;;;8.56;45.20;98125.72;5040928;28;20199;-72
2021/04/09 09:08:07;;;;;;;6.53;5.87;;;;;;;8.62;44.20;98124.28;5042323;28;20958;-73
2021/04/09 09:10:58;;;;;;;6.20;5.80;;;;;;;8.75;45.80;98124.75;5043547;28;20234;-70
2021/04/09 09:13:29;;;;;;;5.53;5.03;;;;;;;8.84;44.25;98112.44;5042211;28;20212;-70
2021/04/09 09:16:17;;;;;;;6.37;5.87;;;;;;;8.85;43.97;98105.38;5039474;28;21030;-71
2021/04/09 09:18:57;;;;;;;5.93;5.43;;;;;;;9.14;43.83;98101.66;5039102;28;20214;-69
2021/04/09 09:21:36;;;;;;;5.80;5.30;;;;;;;9.28;44.02;98093.19;5041369;28;20211;-72
2021/04/09 09:24:16;;;;;;;5.97;5.40;;;;;;;9.66;42.93;98096.44;5042753;28;20306;-70
2021/04/09 09:26:44;;;;;;;6.27;5.07;;;;;;;9.61;42.50;98092.56;5041672;28;20203;-70
2021/04/09 09:29:13;;;;;;;5.77;5.27;;;;;;;9.87;41.40;98095.25;5039764;28;20231;-70
2021/04/09 09:31:41;;;;;;;5.83;4.77;;;;;;;9.93;42.20;98091.13;5042755;28;20220;-70
2021/04/09 09:34:38;;;;;;;5.90;5.40;;;;;;;9.76;40.22;98091.03;5042332;28;20694;-71
2021/04/09 09:37:09;;;;;;;7.70;6.00;;;;;;;9.73;41.36;98086.06;5039190;28;20389;-71
2021/04/09 09:39:50;;;;;;;6.10;5.50;;;;;;;10.07;40.09;98087.06;5040425;28;20235;-70
2021/04/09 09:42:43;;;;;;;5.43;5.00;;;;;;;10.42;39.90;98083.44;5042304;28;20234;-71
2021/04/09 09:45:12;;;;;;;5.40;5.00;;;;;;;10.63;39.54;98071.53;5039146;28;20667;-71
2021/04/09 09:47:41;;;;;;;6.50;4.37;;;;;;;10.73;38.46;98073.22;5042341;28;20243;-69
2021/04/09 09:50:19;;;;;;;5.57;4.70;;;;;;;10.82;37.66;98066.97;5039895;28;20697;-72
2021/04/09 09:52:49;;;;;;;5.23;4.13;;;;;;;10.77;35.74;98063.94;5041324;28;20367;-71
2021/04/09 09:55:22;;;;;;;4.93;4.43;;;;;;;11.19;35.95;98070.13;5038831;28;20277;-71
2021/04/09 09:57:51;;;;;;;3.93;3.63;;;;;;;11.14;33.98;98068.78;5038764;28;20215;-70
2021/04/09 10:00:31;;;;;;;5.10;4.60;;;;;;;11.44;33.37;98055.00;5034041;28;20224;-72
2021/04/09 10:03:15;;;;;;;4.37;4.07;;;;;;;11.58;35.31;98051.69;5042216;28;20208;-71
2021/04/09 10:05:44;;;;;;;5.17;4.73;;;;;;;11.47;33.36;98044.03;5033234;28;20203;-71
2021/04/09 10:08:11;;;;;;;5.23;4.27;;;;;;;11.34;33.10;98044.56;5038972;28;20204;-70
2021/04/09 10:10:50;;;;;;;4.57;4.17;;;;;;;11.44;33.77;98050.53;5040040;28;20224;-71
2021/04/09 10:13:22;;;;;;;6.17;4.80;;;;;;;11.65;33.52;98041.19;5041078;28;20200;-72
2021/04/09 10:15:50;;;;;;;5.13;4.73;;;;;;;11.54;32.28;98030.94;5040773;28;20266;-72
2021/04/09 10:18:25;;;;;;;5.43;4.73;;;;;;;11.72;32.52;98030.72;5040876;28;20215;-72
2021/04/09 10:20:54;;;;;;;4.87;4.47;;;;;;;12.08;32.22;98038.28;5033507;28;20744;-71
2021/04/09 10:23:23;;;;;;;5.30;4.90;;;;;;;11.44;31.51;98039.06;5040721;28;20231;-71
2021/04/09 10:25:53;;;;;;;4.93;4.60;;;;;;;11.09;32.53;98041.09;5036099;28;20211;-72
2021/04/09 10:28:21;;;;;;;5.97;5.33;;;;;;;11.56;32.98;98024.47;5039240;28;20761;-71
2021/04/09 10:30:52;;;;;;;5.00;4.53;;;;;;;11.61;32.62;98026.59;5037962;28;20231;-73
2021/04/09 10:33:35;;;;;;;5.47;4.97;;;;;;;11.82;32.25;98018.06;5039066;28;20206;-72
2021/04/09 10:36:14;;;;;;;6.87;5.27;;;;;;;12.02;32.88;98018.53;5039126;28;20239;-72
2021/04/09 10:38:41;;;;;;;5.67;5.00;;;;;;;12.48;31.95;98002.84;5038520;28;20211;-69
2021/04/09 10:41:25;;;;;;;5.40;5.00;;;;;;;12.63;30.06;98010.91;5036248;28;20211;-73
2021/04/09 10:43:57;;;;;;;4.90;4.60;;;;;;;12.62;30.17;98007.41;5035828;28;20220;-73
2021/04/09 10:46:25;;;;;;;4.80;4.50;;;;;;;13.09;29.09;98005.53;5040171;28;20211;-72
2021/04/09 10:48:58;;;;;;;4.67;4.37;;;;;;;13.98;29.34;97997.81;5039773;28;20278;-73
2021/04/09 10:51:28;;;;;;;5.30;4.90;;;;;;;14.17;29.56;98002.56;5039237;28;20292;-72
2021/04/09 10:54:10;;;;;;;6.53;5.10;;;;;;;13.99;28.20;98000.28;5040969;28;20204;-72
2021/04/09 10:56:38;;;;;;;5.20;4.70;;;;;;;14.24;28.26;97988.50;5041470;28;20668;-72
2021/04/09 10:59:08;;;;;;;5.37;4.93;;;;;;;13.80;28.57;97992.88;5040915;28;20235;-73
2021/04/09 11:01:36;;;;;;;5.37;5.00;;;;;;;13.98;29.46;97989.84;5040306;28;20210;-74
2021/04/09 11:04:04;;;;;;;5.60;5.10;;;;;;;14.03;27.88;97988.28;5042517;28;20586;-72
2021/04/09 11:06:31;;;;;;;6.73;4.97;;;;;;;14.15;28.67;97985.94;5039585;28;20686;-73
2021/04/09 11:08:59;;;;;;;4.77;4.37;;;;;;;14.03;28.05;97977.63;5039727;28;20224;-73
2021/04/09 11:11:32;;;;;;;5.10;4.70;;;;;;;14.03;28.14;97976.78;5039526;28;20726;-73
2021/04/09 11:14:05;;;;;;;4.60;4.27;;;;;;;13.96;28.48;97976.69;5040676;28;20199;-72
2021/04/09 11:16:52;;;;;;;5.37;5.00;;;;;;;14.24;28.89;97962.66;5037893;28;20230;-73
2021/04/09 11:19:28;;;;;;;5.57;5.07;;;;;;;14.50;30.77;97955.97;5037154;28;20224;-74
2021/04/09 11:21:56;;;;;;;5.00;4.60;;;;;;;14.74;29.38;97948.59;5040158;28;20583;-72
2021/04/09 11:24:26;;;;;;;6.10;5.50;;;;;;;14.81;30.09;97954.00;5040070;28;20247;-72
2021/04/09 11:26:54;;;;;;;5.80;5.37;;;;;;;15.19;28.47;97937.66;5040369;28;20495;-74
2021/04/09 11:29:23;;;;;;;6.20;5.63;;;;;;;14.95;28.35;97942.41;5040482;28;20219;-72
2021/04/09 11:31:51;;;;;;;5.50;5.10;;;;;;;15.42;29.16;97934.72;5040584;28;20199;-74
2021/04/09 11:34:18;;;;;;;5.33;4.93;;;;;;;15.43;29.31;97935.56;5040845;28;20652;-74
2021/04/09 11:36:48;;;;;;;5.80;5.23;;;;;;;15.23;29.77;97938.13;5040708;28;20215;-74
2021/04/09 11:39:17;;;;;;;5.60;5.20;;;;;;;14.82;28.88;97921.81;5041195;28;20220;-73
2021/04/09 11:41:45;;;;;;;6.30;5.27;;;;;;;14.62;30.18;97927.78;5039362;28;20214;-73
2021/04/09 11:44:28;;;;;;;5.63;5.23;;;;;;;14.59;30.46;97914.00;5039100;28;20311;-74
2021/04/09 11:47:11;;;;;;;5.73;5.33;;;;;;;15.68;29.07;97919.03;5047469;28;20203;-74